Terminal Aerodrome Forecast
Issued by NWS King Salmon, AK

Home | Current Version | Previous Version | Text Only | Print | Product List | Glossary On
Versions: 1 2 3 4 5 6 7 8 9 10 11 12 13 14 15 16 17 18 19 20 21 22 23 24 25 26 27 28 29 30 31 32 33 34 35 36 37 38
257
FTAK31 PANC 251223 AAB
TAFAKN
TAF AMD
PAKN 251223Z 2512/2612 18010KT P6SM -SHRA FEW008 BKN015 OVC025
      TEMPO 2512/2515 SCT015 OVC035
     FM251800 22017G27KT 6SM -SHRA SCT015 BKN025
     FM260100 24012G22KT P6SM SCT025 BKN050
     FM260600 20006KT P6SM BKN050=

USA.gov is the U.S. government's official web portal to all federal, state and local government web resources and services.